Time;durP1;ratioP1;P1;durP2;ratioP2;P2;SDS_P1;SDS_P2;PMS_P1;PMS_P2;Temp;Humidity;BMP_temperature;BMP_pressure;BME280_temperature;BME280_humidity;BME280_pressure;Samples;Min_cycle;Max_cycle;Signal;HPM_P1;HPM_P2
2023/07/19 00:00:16;;;;;;;6.60;4.03;;;17.30;99.90;;;;;;4998342;28;20923;-76
2023/07/19 00:02:42;;;;;;;7.10;3.92;;;17.60;99.90;;;;;;4998111;28;20427;-76
2023/07/19 00:05:09;;;;;;;7.77;4.10;;;17.60;99.90;;;;;;5013641;28;20415;-77
2023/07/19 00:07:35;;;;;;;7.65;4.90;;;17.50;99.90;;;;;;4981794;28;20871;-76
2023/07/19 00:10:01;;;;;;;6.93;4.77;;;17.30;99.90;;;;;;4997910;28;20427;-76
2023/07/19 00:12:26;;;;;;;7.00;4.40;;;17.30;99.90;;;;;;4997233;28;20433;-76
2023/07/19 00:14:52;;;;;;;9.93;4.93;;;17.50;99.90;;;;;;4997268;28;20533;-76
2023/07/19 00:17:18;;;;;;;6.85;4.43;;;17.40;99.90;;;;;;4998200;28;20407;-76
2023/07/19 00:19:43;;;;;;;7.87;4.63;;;17.40;99.90;;;;;;4995041;28;20423;-76
2023/07/19 00:22:09;;;;;;;8.13;4.37;;;17.50;99.90;;;;;;4981228;28;20449;-76
2023/07/19 00:24:35;;;;;;;7.28;4.45;;;17.40;99.90;;;;;;4997086;28;20510;-74
2023/07/19 00:27:01;;;;;;;7.53;4.20;;;17.30;99.90;;;;;;4996265;28;20444;-74
2023/07/19 00:29:26;;;;;;;7.47;4.60;;;17.40;99.90;;;;;;5014136;28;20465;-75
2023/07/19 00:31:52;;;;;;;7.07;4.50;;;17.40;99.90;;;;;;4996777;28;20462;-75
2023/07/19 00:34:18;;;;;;;7.65;4.75;;;17.40;99.90;;;;;;4994297;28;20469;-76
2023/07/19 00:36:44;;;;;;;8.23;4.82;;;17.30;99.90;;;;;;4997743;28;20410;-76
2023/07/19 00:39:10;;;;;;;8.07;4.70;;;17.40;99.90;;;;;;5013917;28;20895;-76
2023/07/19 00:41:35;;;;;;;6.97;4.93;;;17.30;99.90;;;;;;4995992;28;20431;-76
2023/07/19 00:44:03;;;;;;;7.93;4.90;;;17.10;99.90;;;;;;4994097;28;20466;-75
2023/07/19 00:46:29;;;;;;;7.72;4.38;;;17.30;99.90;;;;;;4995376;28;20415;-76
2023/07/19 00:48:56;;;;;;;7.40;4.78;;;17.10;99.90;;;;;;4996622;28;21004;-76
2023/07/19 00:51:22;;;;;;;7.47;4.63;;;17.40;99.90;;;;;;4981583;28;20437;-75
2023/07/19 00:53:49;;;;;;;6.07;4.03;;;17.40;99.90;;;;;;4981402;28;20411;-76
2023/07/19 00:56:15;;;;;;;6.05;3.80;;;17.50;99.90;;;;;;4991253;28;20428;-76
2023/07/19 00:58:42;;;;;;;6.03;3.80;;;17.50;99.90;;;;;;4986810;28;20427;-76
2023/07/19 01:01:07;;;;;;;6.35;3.85;;;17.50;99.90;;;;;;4996996;28;20425;-76
2023/07/19 01:03:33;;;;;;;6.95;4.00;;;17.50;99.90;;;;;;5017808;28;20402;-76
2023/07/19 01:05:59;;;;;;;8.00;5.03;;;17.30;99.90;;;;;;5000507;28;20418;-76
2023/07/19 01:08:26;;;;;;;7.80;4.80;;;17.20;99.90;;;;;;5016718;28;20427;-76
2023/07/19 01:10:53;;;;;;;6.47;4.30;;;17.20;99.90;;;;;;4998135;28;20426;-74
2023/07/19 01:13:18;;;;;;;7.07;4.80;;;17.30;99.90;;;;;;5002429;28;20419;-75
2023/07/19 01:15:44;;;;;;;8.30;4.60;;;17.20;99.90;;;;;;5016162;28;20445;-74
2023/07/19 01:18:10;;;;;;;6.88;5.00;;;17.30;99.90;;;;;;5016642;28;20446;-76
2023/07/19 01:20:37;;;;;;;7.35;5.00;;;17.30;99.90;;;;;;5016013;28;20759;-76
2023/07/19 01:23:04;;;;;;;9.23;4.82;;;;;;;;;;5016124;28;20427;-76
2023/07/19 01:25:30;;;;;;;8.77;4.82;;;17.30;99.90;;;;;;5016120;28;20473;-75
2023/07/19 01:27:56;;;;;;;7.50;4.80;;;17.20;99.90;;;;;;4985119;28;20411;-76
2023/07/19 01:30:22;;;;;;;7.80;4.60;;;17.40;99.90;;;;;;4989854;28;20424;-75
2023/07/19 01:32:47;;;;;;;10.80;5.03;;;17.20;99.90;;;;;;4989409;28;20443;-76
2023/07/19 01:35:13;;;;;;;6.43;4.88;;;17.20;99.90;;;;;;4965556;28;20409;-76
2023/07/19 01:37:39;;;;;;;9.40;5.03;;;17.20;99.90;;;;;;4981600;28;20408;-76
2023/07/19 01:40:06;;;;;;;7.60;5.07;;;17.30;99.90;;;;;;4990026;28;20427;-75
2023/07/19 01:42:32;;;;;;;7.97;5.60;;;17.10;99.90;;;;;;5016453;28;20603;-76
2023/07/19 01:45:00;;;;;;;7.53;5.37;;;17.00;99.90;;;;;;5000852;28;20538;-76
2023/07/19 01:47:26;;;;;;;6.95;4.50;;;17.20;99.90;;;;;;4998063;28;20919;-76
2023/07/19 01:49:52;;;;;;;7.47;4.95;;;17.40;99.90;;;;;;5016438;28;20410;-75
2023/07/19 01:52:18;;;;;;;8.45;5.60;;;17.00;99.90;;;;;;4999883;28;20422;-76
2023/07/19 01:54:43;;;;;;;8.37;5.10;;;17.10;99.90;;;;;;4983830;28;20424;-75
2023/07/19 01:57:10;;;;;;;7.50;4.80;;;16.90;99.90;;;;;;4982950;28;20964;-75
2023/07/19 01:59:36;;;;;;;7.47;5.45;;;16.90;99.90;;;;;;5015937;28;20907;-75
2023/07/19 02:02:02;;;;;;;9.83;5.97;;;17.10;99.90;;;;;;5015841;28;20511;-75
2023/07/19 02:04:28;;;;;;;7.32;5.35;;;17.10;99.90;;;;;;5015564;28;20423;-74
2023/07/19 02:06:53;;;;;;;8.05;5.47;;;17.10;99.90;;;;;;5000328;28;20410;-75
2023/07/19 02:09:19;;;;;;;7.40;5.00;;;17.00;99.90;;;;;;4999603;28;20414;-76
2023/07/19 02:11:45;;;;;;;8.37;5.70;;;17.10;99.90;;;;;;4964971;28;20416;-76
2023/07/19 02:14:11;;;;;;;8.20;5.63;;;17.20;99.90;;;;;;4999967;28;20518;-75
2023/07/19 02:16:36;;;;;;;10.00;5.38;;;16.90;99.90;;;;;;4983987;28;20403;-75
2023/07/19 02:19:05;;;;;;;9.38;5.38;;;17.20;99.90;;;;;;5014815;28;20783;-75
2023/07/19 02:21:30;;;;;;;9.15;5.55;;;17.00;99.90;;;;;;4997749;28;20434;-75
2023/07/19 02:23:57;;;;;;;8.45;5.47;;;17.00;99.90;;;;;;4999062;28;20783;-76
2023/07/19 02:26:23;;;;;;;8.82;5.60;;;17.10;99.90;;;;;;5005851;28;20426;-76
2023/07/19 02:28:49;;;;;;;9.50;6.43;;;16.80;99.90;;;;;;4999137;28;20512;-76
2023/07/19 02:31:15;;;;;;;10.40;6.10;;;17.00;99.90;;;;;;4998876;28;20510;-77
2023/07/19 02:33:40;;;;;;;10.68;6.10;;;17.10;99.90;;;;;;4982080;28;20489;-77
2023/07/19 02:36:06;;;;;;;9.10;6.43;;;17.10;99.90;;;;;;5015278;28;20414;-77
2023/07/19 02:38:32;;;;;;;8.33;6.47;;;16.90;99.90;;;;;;5014776;28;20414;-77
2023/07/19 02:41:01;;;;;;;10.68;6.75;;;16.80;99.90;;;;;;5014319;28;20442;-77
2023/07/19 02:43:28;;;;;;;8.63;6.68;;;16.90;99.90;;;;;;5015224;28;20431;-77
2023/07/19 02:45:54;;;;;;;11.32;6.60;;;17.00;99.90;;;;;;5015512;28;20429;-77
2023/07/19 02:48:20;;;;;;;11.40;7.38;;;16.90;99.90;;;;;;5016063;28;20541;-78
2023/07/19 02:50:47;;;;;;;9.60;7.07;;;16.80;99.90;;;;;;4991942;28;20963;-77
2023/07/19 02:53:13;;;;;;;9.38;6.97;;;17.10;99.90;;;;;;4980054;28;20424;-77
2023/07/19 02:55:42;;;;;;;9.38;6.97;;;17.10;99.90;;;;;;5008884;28;20433;-74
2023/07/19 02:58:07;;;;;;;10.50;7.20;;;17.00;99.90;;;;;;4996121;28;20440;-76
2023/07/19 03:00:33;;;;;;;11.52;6.70;;;17.00;99.90;;;;;;5004935;28;20524;-77
2023/07/19 03:02:59;;;;;;;9.85;6.88;;;16.80;99.90;;;;;;4999381;28;20426;-77
2023/07/19 03:05:25;;;;;;;11.18;7.20;;;16.80;99.90;;;;;;5014906;28;20922;-77
2023/07/19 03:07:51;;;;;;;12.63;7.07;;;16.70;99.90;;;;;;5014526;28;20406;-76
2023/07/19 03:10:16;;;;;;;10.80;6.93;;;16.70;99.90;;;;;;5008513;28;20814;-77
2023/07/19 03:12:42;;;;;;;10.80;7.10;;;16.80;99.90;;;;;;5012078;28;20513;-77
2023/07/19 03:15:08;;;;;;;11.40;7.80;;;16.90;99.90;;;;;;4997447;28;20428;-77
2023/07/19 03:17:34;;;;;;;11.50;7.67;;;16.60;99.90;;;;;;5015572;28;20443;-77
2023/07/19 03:20:00;;;;;;;13.23;8.33;;;16.70;99.90;;;;;;5011267;28;20926;-77
2023/07/19 03:22:25;;;;;;;10.80;8.13;;;16.50;99.90;;;;;;5009826;28;20427;-77
2023/07/19 03:24:51;;;;;;;12.27;7.72;;;16.50;99.90;;;;;;4994198;28;20423;-77
2023/07/19 03:27:17;;;;;;;11.07;7.80;;;16.70;99.90;;;;;;5014148;28;20419;-77
2023/07/19 03:29:42;;;;;;;10.03;7.80;;;16.50;99.90;;;;;;5012990;28;20958;-76
2023/07/19 03:32:08;;;;;;;10.40;7.75;;;16.60;99.90;;;;;;5010153;28;20430;-77
2023/07/19 03:34:34;;;;;;;10.07;8.05;;;16.60;99.90;;;;;;5010727;28;20409;-76
2023/07/19 03:37:00;;;;;;;12.07;8.73;;;16.60;99.90;;;;;;5008770;28;20823;-76
2023/07/19 03:39:26;;;;;;;11.63;8.20;;;16.60;99.90;;;;;;5014904;28;20400;-76
2023/07/19 03:41:52;;;;;;;12.03;8.43;;;16.90;99.90;;;;;;4992140;28;20422;-77
2023/07/19 03:44:18;;;;;;;12.25;9.05;;;16.60;99.90;;;;;;5013186;28;20419;-78
2023/07/19 03:46:44;;;;;;;10.52;8.55;;;16.70;99.90;;;;;;4992398;28;20417;-77
2023/07/19 03:49:09;;;;;;;10.85;9.50;;;16.50;99.90;;;;;;5013154;28;20464;-77
2023/07/19 03:51:35;;;;;;;13.40;9.10;;;16.50;99.90;;;;;;5014242;28;20513;-77
2023/07/19 03:54:01;;;;;;;13.13;9.27;;;16.90;99.90;;;;;;5014832;28;20767;-77
2023/07/19 03:56:26;;;;;;;13.75;9.25;;;16.90;99.90;;;;;;5014881;28;20411;-77
2023/07/19 03:58:52;;;;;;;11.10;9.90;;;16.80;99.90;;;;;;5013376;28;20430;-76
2023/07/19 04:01:18;;;;;;;12.35;9.20;;;16.70;99.90;;;;;;5010393;28;20430;-77
2023/07/19 04:03:44;;;;;;;13.77;9.57;;;16.70;99.90;;;;;;4996613;28;20947;-77
2023/07/19 04:06:10;;;;;;;14.38;9.80;;;16.90;99.90;;;;;;5014667;28;20918;-76
2023/07/19 04:08:36;;;;;;;13.55;9.90;;;16.60;99.90;;;;;;5012434;28;20419;-77
2023/07/19 04:11:02;;;;;;;11.90;9.47;;;16.60;99.90;;;;;;5012712;28;20423;-77
2023/07/19 04:13:28;;;;;;;11.73;9.40;;;16.60;99.90;;;;;;4980273;28;20539;-77
2023/07/19 04:15:54;;;;;;;15.10;9.82;;;16.70;99.90;;;;;;4996009;28;20787;-78
2023/07/19 04:18:20;;;;;;;13.13;9.82;;;16.70;99.90;;;;;;5013671;28;20823;-77
2023/07/19 04:20:45;;;;;;;16.03;10.40;;;16.80;99.90;;;;;;4979368;28;20454;-77
2023/07/19 04:23:11;;;;;;;12.00;9.90;;;16.70;99.90;;;;;;5003200;28;20425;-77
2023/07/19 04:25:37;;;;;;;12.23;10.27;;;16.60;99.90;;;;;;5007539;28;20422;-77
2023/07/19 04:28:03;;;;;;;13.95;10.40;;;16.70;99.90;;;;;;4997824;28;20514;-76
2023/07/19 04:30:29;;;;;;;13.90;10.82;;;16.60;99.90;;;;;;4995748;28;20427;-76
2023/07/19 04:32:55;;;;;;;14.13;10.27;;;16.70;99.90;;;;;;5004483;28;20506;-77
2023/07/19 04:35:22;;;;;;;14.63;10.32;;;16.80;99.90;;;;;;4995563;28;20430;-77
2023/07/19 04:37:49;;;;;;;14.27;10.73;;;16.80;99.90;;;;;;4980665;28;20419;-77
2023/07/19 04:40:16;;;;;;;13.55;10.05;;;16.80;99.90;;;;;;5012800;28;20819;-77
2023/07/19 04:42:42;;;;;;;13.70;10.40;;;16.60;99.90;;;;;;5013639;28;20764;-76
2023/07/19 04:45:08;;;;;;;14.10;9.95;;;16.80;99.90;;;;;;4997110;28;20494;-77
2023/07/19 04:47:36;;;;;;;13.98;10.43;;;16.70;99.90;;;;;;5013582;28;20427;-77
2023/07/19 04:50:09;;;;;;;14.90;10.48;;;16.60;99.90;;;;;;5012650;28;20812;-76
2023/07/19 04:52:35;;;;;;;14.67;10.60;;;16.90;99.90;;;;;;4991200;28;20426;-76
2023/07/19 04:55:08;;;;;;;15.20;10.60;;;16.80;99.90;;;;;;4993782;28;20421;-76
2023/07/19 04:57:33;;;;;;;12.77;9.75;;;16.90;99.90;;;;;;4994310;28;20424;-76
2023/07/19 04:59:59;;;;;;;12.68;9.70;;;16.80;99.90;;;;;;5012562;28;20581;-75
2023/07/19 05:02:25;;;;;;;14.17;9.67;;;17.00;99.90;;;;;;5012103;28;20423;-76
2023/07/19 05:04:51;;;;;;;13.47;8.90;;;17.10;99.90;;;;;;4980367;28;20424;-76
2023/07/19 05:07:16;;;;;;;13.38;9.40;;;17.10;99.90;;;;;;5013004;28;20771;-77
2023/07/19 05:09:42;;;;;;;14.60;9.57;;;17.00;99.90;;;;;;5014039;28;20434;-77
2023/07/19 05:12:09;;;;;;;14.15;9.52;;;17.00;99.90;;;;;;4993972;28;20428;-76
2023/07/19 05:14:35;;;;;;;12.35;9.57;;;17.20;99.90;;;;;;5004381;28;20812;-76
2023/07/19 05:17:01;;;;;;;12.70;9.30;;;17.20;99.90;;;;;;4998523;28;20426;-76
2023/07/19 05:19:26;;;;;;;14.25;9.75;;;17.10;99.90;;;;;;5013865;28;20747;-76
2023/07/19 05:21:52;;;;;;;14.57;9.13;;;17.10;99.90;;;;;;5010184;28;20419;-75
2023/07/19 05:24:18;;;;;;;11.73;8.90;;;17.10;99.90;;;;;;5014289;28;20407;-76
2023/07/19 05:26:44;;;;;;;14.73;9.10;;;17.20;99.90;;;;;;4997286;28;20415;-76
2023/07/19 05:29:10;;;;;;;14.80;9.18;;;17.20;99.90;;;;;;5013971;28;20403;-77
2023/07/19 05:31:36;;;;;;;12.77;8.60;;;17.30;99.90;;;;;;4995207;28;20423;-77
2023/07/19 05:34:02;;;;;;;11.52;8.38;;;17.20;99.90;;;;;;5009746;28;20804;-77
2023/07/19 05:36:28;;;;;;;11.77;8.63;;;17.50;99.90;;;;;;5009783;28;20424;-77
2023/07/19 05:38:54;;;;;;;10.40;8.07;;;17.20;99.90;;;;;;4990553;28;20456;-77
2023/07/19 05:41:20;;;;;;;10.98;7.85;;;17.30;99.90;;;;;;5008197;28;20531;-77
2023/07/19 05:43:46;;;;;;;12.77;8.02;;;17.40;99.90;;;;;;5009355;28;20461;-77
2023/07/19 05:46:12;;;;;;;12.05;8.18;;;17.30;99.90;;;;;;5008243;28;20448;-77
2023/07/19 05:48:38;;;;;;;11.57;7.83;;;17.40;99.90;;;;;;4994291;28;20420;-77
2023/07/19 05:51:05;;;;;;;12.17;8.20;;;17.20;99.90;;;;;;4993375;28;20975;-80
2023/07/19 05:53:31;;;;;;;12.65;8.32;;;17.30;99.90;;;;;;4999848;28;20463;-86
2023/07/19 05:55:57;;;;;;;12.15;8.60;;;17.30;99.90;;;;;;5000710;28;20408;-83
2023/07/19 05:58:23;;;;;;;11.57;8.45;;;17.10;99.90;;;;;;5005935;28;20446;-85
2023/07/19 06:00:49;;;;;;;13.18;8.40;;;17.00;99.90;;;;;;4998213;28;20438;-84
2023/07/19 06:03:16;;;;;;;13.17;8.00;;;17.10;99.90;;;;;;5016374;28;20455;-84
2023/07/19 06:05:45;;;;;;;13.95;8.88;;;17.10;99.90;;;;;;5004820;28;20413;-84
2023/07/19 06:08:11;;;;;;;10.53;7.93;;;17.00;99.90;;;;;;4997157;28;20484;-83
2023/07/19 06:10:38;;;;;;;11.48;8.18;;;17.30;99.90;;;;;;4980608;28;20410;-82
2023/07/19 06:13:04;;;;;;;10.57;7.53;;;17.00;99.90;;;;;;4992433;28;20846;-83
2023/07/19 06:15:31;;;;;;;11.10;7.25;;;17.20;99.90;;;;;;5002746;28;20430;-83
2023/07/19 06:17:57;;;;;;;9.02;6.43;;;17.20;99.90;;;;;;5011303;28;20825;-83
2023/07/19 06:20:23;;;;;;;11.57;6.78;;;17.10;99.90;;;;;;4982443;28;20448;-84
2023/07/19 06:22:49;;;;;;;9.88;6.10;;;18.50;99.90;;;;;;5015479;28;20924;-85
2023/07/19 06:25:15;;;;;;;9.68;6.05;;;17.20;99.90;;;;;;5000794;28;20408;-84
2023/07/19 06:27:42;;;;;;;8.63;6.10;;;17.40;99.90;;;;;;5016226;28;20436;-84
2023/07/19 06:30:11;;;;;;;9.50;6.50;;;17.40;99.90;;;;;;5000130;28;20802;-85
2023/07/19 06:32:37;;;;;;;10.48;5.95;;;17.00;99.90;;;;;;4995122;28;20435;-84
2023/07/19 06:35:04;;;;;;;12.35;5.55;;;17.20;99.90;;;;;;4965300;28;20895;-84
2023/07/19 06:37:32;;;;;;;9.30;5.37;;;17.40;99.90;;;;;;4999839;28;20410;-84
2023/07/19 06:40:00;;;;;;;10.07;5.65;;;17.00;99.90;;;;;;5000627;28;20409;-83
2023/07/19 06:42:25;;;;;;;9.60;5.80;;;17.30;99.90;;;;;;5000086;28;20432;-85
2023/07/19 06:44:53;;;;;;;10.27;5.82;;;17.20;99.90;;;;;;4996894;28;20443;-85
2023/07/19 06:47:19;;;;;;;8.82;5.60;;;17.40;99.90;;;;;;5000212;28;20410;-86
2023/07/19 06:49:44;;;;;;;9.02;5.65;;;17.20;99.90;;;;;;5016271;28;20404;-84
2023/07/19 06:52:10;;;;;;;10.80;6.10;;;17.40;99.90;;;;;;5016052;28;20408;-85
2023/07/19 06:54:36;;;;;;;10.18;5.90;;;17.40;99.90;;;;;;5013457;28;20495;-79
2023/07/19 06:57:02;;;;;;;11.02;6.18;;;17.40;99.90;;;;;;5004070;28;20437;-79
2023/07/19 06:59:28;;;;;;;10.20;5.90;;;17.40;99.90;;;;;;5007243;28;20424;-79
2023/07/19 07:01:54;;;;;;;10.80;5.82;;;17.60;99.90;;;;;;4993752;28;20432;-79
2023/07/19 07:04:20;;;;;;;8.60;5.25;;;18.30;99.90;;;;;;4986163;28;20904;-77
2023/07/19 07:06:45;;;;;;;10.80;5.10;;;17.50;99.90;;;;;;5002684;28;20484;-79
2023/07/19 07:09:14;;;;;;;8.30;5.10;;;17.30;99.90;;;;;;5009142;28;20431;-79
2023/07/19 07:11:40;;;;;;;10.77;4.90;;;17.20;99.90;;;;;;4995559;28;20420;-78
2023/07/19 07:14:05;;;;;;;8.35;5.10;;;17.50;99.90;;;;;;5007147;28;20433;-82
2023/07/19 07:16:31;;;;;;;9.07;5.27;;;17.60;99.90;;;;;;4979990;28;20481;-82
2023/07/19 07:18:57;;;;;;;6.90;4.70;;;17.70;99.90;;;;;;4989507;28;20976;-80
2023/07/19 07:21:23;;;;;;;6.47;4.45;;;17.50;99.90;;;;;;4996252;28;20440;-80
2023/07/19 07:23:49;;;;;;;8.18;4.25;;;17.70;99.90;;;;;;4998612;28;20470;-80
2023/07/19 07:26:14;;;;;;;9.35;4.30;;;17.90;99.90;;;;;;5013381;28;20788;-80
2023/07/19 07:28:40;;;;;;;8.20;4.28;;;17.60;99.90;;;;;;4980804;28;20426;-82
2023/07/19 07:31:08;;;;;;;7.25;3.80;;;17.40;99.90;;;;;;4995471;28;20432;-81
2023/07/19 07:33:35;;;;;;;8.70;4.17;;;17.80;99.90;;;;;;5000542;28;20429;-81
2023/07/19 07:36:01;;;;;;;6.75;3.20;;;17.70;99.90;;;;;;4993098;28;20439;-83
2023/07/19 07:38:27;;;;;;;16.83;3.20;;;17.90;99.90;;;;;;4997269;28;20450;-82
2023/07/19 07:40:59;;;;;;;6.88;3.60;;;18.00;99.90;;;;;;5014103;28;20471;-80
2023/07/19 07:43:25;;;;;;;5.53;2.90;;;18.00;99.90;;;;;;5008255;28;20505;-80
2023/07/19 07:45:54;;;;;;;5.50;2.50;;;17.80;99.90;;;;;;5001436;28;20489;-81
2023/07/19 07:48:21;;;;;;;4.38;2.90;;;18.00;99.90;;;;;;4995129;28;20424;-83
2023/07/19 07:50:49;;;;;;;8.27;2.80;;;17.90;99.90;;;;;;4996805;28;20408;-83
2023/07/19 07:53:15;;;;;;;5.78;2.80;;;18.30;99.90;;;;;;4978398;28;20425;-80
2023/07/19 07:55:41;;;;;;;4.53;2.33;;;18.20;99.90;;;;;;4997529;28;20425;-82
2023/07/19 07:58:07;;;;;;;5.53;2.53;;;18.20;99.90;;;;;;4981019;28;20495;-84
2023/07/19 08:00:33;;;;;;;5.35;2.50;;;18.30;99.90;;;;;;5012117;28;20948;-84
2023/07/19 08:02:58;;;;;;;5.82;2.30;;;18.40;99.90;;;;;;5010948;28;20509;-83
2023/07/19 08:05:24;;;;;;;7.60;2.80;;;18.60;99.90;;;;;;4992555;28;20414;-83
2023/07/19 08:07:50;;;;;;;5.30;2.20;;;18.70;99.90;;;;;;5010806;28;20475;-81
2023/07/19 08:10:15;;;;;;;4.15;2.10;;;18.70;99.90;;;;;;4995296;28;20424;-80
2023/07/19 08:12:41;;;;;;;4.15;1.83;;;19.00;99.90;;;;;;5006468;28;20432;-79
2023/07/19 08:15:07;;;;;;;5.03;1.90;;;19.10;99.90;;;;;;5008840;28;20421;-80
2023/07/19 08:17:33;;;;;;;3.58;1.70;;;19.00;99.90;;;;;;4977182;28;20424;-79
2023/07/19 08:19:59;;;;;;;3.70;1.57;;;20.40;99.90;;;;;;4982860;28;20431;-80
2023/07/19 08:22:27;;;;;;;3.20;1.60;;;19.00;99.90;;;;;;5007285;28;20950;-79
2023/07/19 08:24:53;;;;;;;4.30;1.83;;;18.60;99.90;;;;;;5010800;28;20420;-81
2023/07/19 08:27:19;;;;;;;4.18;1.70;;;18.70;99.90;;;;;;4994738;28;21076;-80
2023/07/19 08:29:45;;;;;;;3.85;1.52;;;18.60;99.90;;;;;;4995496;28;20503;-80
2023/07/19 08:32:10;;;;;;;5.37;1.80;;;18.70;99.90;;;;;;4994602;28;20433;-79
2023/07/19 08:34:36;;;;;;;3.37;1.50;;;18.70;99.90;;;;;;4993939;28;20586;-79
2023/07/19 08:37:02;;;;;;;4.28;1.88;;;18.90;99.90;;;;;;4997462;28;20430;-80
2023/07/19 08:39:28;;;;;;;3.65;1.50;;;18.70;99.90;;;;;;5007994;28;20421;-78
2023/07/19 08:41:53;;;;;;;5.30;1.80;;;18.90;99.90;;;;;;4991011;28;20486;-77
2023/07/19 08:44:24;;;;;;;3.77;1.70;;;19.00;99.90;;;;;;4984649;28;20419;-77
2023/07/19 08:46:50;;;;;;;4.00;1.75;;;19.20;99.90;;;;;;5001478;28;20559;-79
2023/07/19 08:49:19;;;;;;;4.38;1.60;;;19.20;99.90;;;;;;5005368;28;20429;-80
2023/07/19 08:51:46;;;;;;;3.17;1.42;;;19.30;99.90;;;;;;4992100;28;20780;-80
2023/07/19 08:54:12;;;;;;;3.90;1.52;;;19.80;99.90;;;;;;4974787;28;20459;-80
2023/07/19 08:56:38;;;;;;;3.53;1.38;;;19.90;99.90;;;;;;5005899;28;20437;-81
2023/07/19 08:59:06;;;;;;;3.10;1.40;;;19.90;99.90;;;;;;4989684;28;20457;-79
2023/07/19 09:01:32;;;;;;;4.50;1.52;;;20.10;99.90;;;;;;5010928;28;20692;-80
2023/07/19 09:03:58;;;;;;;3.28;1.40;;;20.30;99.90;;;;;;5009404;28;20416;-80
2023/07/19 09:06:25;;;;;;;2.05;1.30;;;20.70;99.90;;;;;;5008390;28;20413;-80
2023/07/19 09:08:51;;;;;;;3.42;1.40;;;20.40;99.90;;;;;;5025742;28;20427;-80
2023/07/19 09:11:22;;;;;;;2.50;1.20;;;20.60;99.90;;;;;;4992602;28;20516;-78
2023/07/19 09:13:57;;;;;;;3.72;1.30;;;20.60;99.90;;;;;;4990749;28;20414;-77
2023/07/19 09:16:28;;;;;;;1.90;1.10;;;21.00;99.90;;;;;;4991016;28;20944;-77
2023/07/19 09:18:56;;;;;;;3.05;1.50;;;21.30;99.90;;;;;;5009122;28;20432;-81
2023/07/19 09:21:43;;;;;;;3.35;1.30;;;21.30;99.90;;;;;;5008704;28;20525;-81
2023/07/19 09:24:10;;;;;;;3.70;1.65;;;21.60;99.90;;;;;;4995356;28;20436;-81
2023/07/19 09:26:48;;;;;;;3.38;1.30;;;21.70;99.90;;;;;;4993604;28;20931;-82
2023/07/19 09:29:14;;;;;;;4.00;1.40;;;21.50;99.90;;;;;;5011971;28;20438;-78
2023/07/19 09:31:54;;;;;;;3.33;1.37;;;20.90;99.90;;;;;;5008706;28;22282;-80
2023/07/19 09:34:41;;;;;;;3.22;1.40;;;20.90;99.90;;;;;;5014169;28;20438;-77
2023/07/19 09:37:07;;;;;;;4.07;1.50;;;20.70;99.90;;;;;;4992952;28;20428;-81
2023/07/19 09:39:35;;;;;;;5.43;1.67;;;20.50;99.90;;;;;;5011735;28;20429;-80
2023/07/19 09:42:01;;;;;;;6.25;2.00;;;20.50;99.90;;;;;;5013664;28;20426;-79
2023/07/19 09:44:27;;;;;;;4.22;1.85;;;20.70;99.90;;;;;;5012377;28;20490;-78
2023/07/19 09:46:54;;;;;;;3.47;1.57;;;20.90;99.90;;;;;;4989140;28;20419;-80
2023/07/19 09:49:20;;;;;;;3.63;1.57;;;21.10;99.90;;;;;;5014081;28;20443;-79
2023/07/19 09:51:47;;;;;;;4.18;1.63;;;21.10;99.90;;;;;;4993712;28;20414;-81
2023/07/19 09:54:14;;;;;;;4.20;1.60;;;21.20;99.90;;;;;;4995016;28;20434;-81
2023/07/19 09:56:42;;;;;;;3.85;1.52;;;21.20;99.90;;;;;;4997252;28;20433;-82
2023/07/19 09:59:40;;;;;;;3.80;1.90;;;21.80;99.90;;;;;;4990076;28;20469;-82
2023/07/19 10:02:07;;;;;;;6.87;2.57;;;21.10;99.90;;;;;;5012352;28;20428;-82
2023/07/19 10:04:37;;;;;;;7.40;2.37;;;21.00;99.90;;;;;;5007207;28;20429;-82
2023/07/19 10:07:05;;;;;;;5.38;2.00;;;20.90;99.90;;;;;;4974147;28;20426;-84
2023/07/19 10:09:34;;;;;;;4.28;1.92;;;20.70;99.90;;;;;;4997222;28;20430;-82
2023/07/19 10:12:23;;;;;;;6.78;2.42;;;20.50;99.90;;;;;;5003378;28;20433;-80
2023/07/19 10:14:57;;;;;;;4.88;2.05;;;20.40;99.90;;;;;;5021185;28;20449;-80
2023/07/19 10:17:24;;;;;;;6.75;2.20;;;20.40;99.90;;;;;;5010883;28;20432;-80
2023/07/19 10:20:15;;;;;;;5.47;2.00;;;20.90;99.90;;;;;;5008747;28;20428;-83
2023/07/19 10:22:57;;;;;;;4.90;1.90;;;20.80;99.90;;;;;;5010377;28;20436;-81
2023/07/19 10:25:31;;;;;;;5.07;1.77;;;20.00;99.90;;;;;;5009654;28;20425;-82
2023/07/19 10:28:01;;;;;;;4.68;1.95;;;20.90;99.90;;;;;;5018544;28;20958;-80
2023/07/19 10:30:47;;;;;;;4.90;1.60;;;21.30;99.90;;;;;;4993083;28;20420;-81
2023/07/19 10:33:15;;;;;;;4.70;1.70;;;21.60;99.90;;;;;;4991203;28;20437;-81
2023/07/19 10:35:42;;;;;;;4.67;1.70;;;21.70;99.90;;;;;;5005530;28;20456;-81
2023/07/19 10:38:15;;;;;;;6.47;2.60;;;21.20;99.90;;;;;;5003520;28;20464;-80
2023/07/19 10:40:45;;;;;;;5.47;2.47;;;22.00;99.90;;;;;;5003534;28;20932;-80
2023/07/19 10:43:11;;;;;;;6.55;3.00;;;21.80;99.90;;;;;;5008815;28;20438;-81
2023/07/19 10:45:38;;;;;;;5.43;2.60;;;21.30;99.90;;;;;;5015316;28;20933;-80
2023/07/19 10:48:04;;;;;;;5.30;2.20;;;20.90;99.90;;;;;;5006799;28;20416;-80
2023/07/19 10:50:30;;;;;;;3.58;2.13;;;21.00;99.90;;;;;;5007179;28;20495;-80
2023/07/19 10:52:56;;;;;;;4.70;2.30;;;21.00;99.90;;;;;;4998598;28;20930;-81
2023/07/19 10:55:23;;;;;;;5.22;2.50;;;21.00;99.90;;;;;;4999175;28;20462;-81
2023/07/19 10:57:49;;;;;;;4.68;2.20;;;21.50;99.90;;;;;;4978987;28;20436;-81
2023/07/19 11:00:15;;;;;;;5.90;2.20;;;21.10;99.90;;;;;;5012706;28;20490;-78
2023/07/19 11:02:41;;;;;;;4.97;2.60;;;21.40;99.90;;;;;;4985770;28;20433;-81
2023/07/19 11:05:08;;;;;;;4.85;2.00;;;21.50;99.90;;;;;;4998012;28;20428;-83
2023/07/19 11:07:34;;;;;;;4.60;2.30;;;21.70;99.90;;;;;;5011592;28;20937;-78
2023/07/19 11:10:01;;;;;;;5.38;2.60;;;21.80;99.90;;;;;;5008588;28;20478;-80
2023/07/19 11:12:29;;;;;;;5.43;2.70;;;21.70;99.90;;;;;;4997907;28;20408;-79
2023/07/19 11:14:58;;;;;;;5.20;2.33;;;21.50;99.90;;;;;;5014992;28;20819;-80
2023/07/19 11:17:35;;;;;;;6.43;2.80;;;21.60;99.90;;;;;;5005686;28;20439;-78
2023/07/19 11:20:01;;;;;;;4.15;1.90;;;21.40;99.90;;;;;;5012055;28;20718;-80
2023/07/19 11:22:27;;;;;;;4.65;1.83;;;21.70;99.90;;;;;;5008972;28;20415;-79
2023/07/19 11:24:54;;;;;;;4.05;2.00;;;21.70;99.90;;;;;;5011044;28;20490;-80
2023/07/19 11:27:36;;;;;;;3.97;1.85;;;21.50;99.90;;;;;;5005871;28;20453;-79
2023/07/19 11:30:03;;;;;;;4.75;1.80;;;21.80;99.90;;;;;;4994041;28;20514;-79
2023/07/19 11:32:29;;;;;;;3.87;1.60;;;21.60;99.90;;;;;;5012277;28;21009;-78
2023/07/19 11:34:59;;;;;;;4.73;1.60;;;21.70;99.90;;;;;;5009877;28;20468;-77
2023/07/19 11:37:31;;;;;;;3.45;1.50;;;21.90;99.90;;;;;;5003592;28;20433;-77
2023/07/19 11:39:57;;;;;;;4.78;1.98;;;21.50;99.90;;;;;;5008475;28;20440;-79
2023/07/19 11:42:45;;;;;;;4.32;2.10;;;21.70;99.90;;;;;;5009670;28;20571;-79
2023/07/19 11:45:16;;;;;;;3.70;1.75;;;21.70;99.90;;;;;;5005986;28;20431;-76
2023/07/19 11:47:43;;;;;;;3.88;1.60;;;21.60;99.90;;;;;;5008654;28;20413;-76
2023/07/19 11:50:10;;;;;;;5.72;1.70;;;22.00;99.90;;;;;;5010259;28;20485;-79
2023/07/19 11:52:57;;;;;;;3.15;1.60;;;22.10;99.90;;;;;;4990046;28;20434;-79
2023/07/19 11:55:24;;;;;;;4.57;1.80;;;22.00;99.90;;;;;;5007203;28;20777;-78
2023/07/19 11:57:51;;;;;;;4.90;1.60;;;22.30;99.90;;;;;;4993472;28;20430;-79
2023/07/19 12:00:20;;;;;;;5.35;1.90;;;22.50;99.90;;;;;;5009830;28;20543;-79
2023/07/19 12:02:46;;;;;;;3.40;1.95;;;22.30;99.90;;;;;;5009164;28;20497;-79
2023/07/19 12:05:17;;;;;;;4.07;1.90;;;21.80;99.90;;;;;;5007960;28;20793;-79
2023/07/19 12:07:43;;;;;;;3.03;1.60;;;21.80;99.90;;;;;;5006410;28;20432;-79
2023/07/19 12:10:09;;;;;;;3.65;1.70;;;21.30;99.90;;;;;;5010066;28;20428;-79
2023/07/19 12:12:36;;;;;;;3.65;2.08;;;21.30;99.90;;;;;;4979429;28;20441;-79
2023/07/19 12:15:05;;;;;;;3.58;1.73;;;21.90;99.90;;;;;;5004082;28;20439;-79
2023/07/19 12:17:32;;;;;;;4.82;1.80;;;22.00;99.90;;;;;;4985429;28;20471;-78
2023/07/19 12:19:59;;;;;;;2.10;1.45;;;21.70;99.90;;;;;;4999884;28;20439;-78
2023/07/19 12:22:28;;;;;;;3.07;1.50;;;22.30;99.90;;;;;;5007643;28;20425;-78
2023/07/19 12:24:58;;;;;;;4.85;1.90;;;22.00;99.90;;;;;;5006966;28;20445;-78
2023/07/19 12:27:25;;;;;;;4.18;1.80;;;22.20;99.90;;;;;;5008786;28;20428;-80
2023/07/19 12:29:51;;;;;;;3.72;1.70;;;22.10;99.90;;;;;;5008905;28;20474;-78
2023/07/19 12:32:16;;;;;;;4.07;1.98;;;22.00;99.90;;;;;;5003862;28;20426;-79
2023/07/19 12:34:46;;;;;;;4.73;2.10;;;21.50;99.90;;;;;;5002913;28;20432;-79
2023/07/19 12:37:15;;;;;;;4.22;2.20;;;21.70;99.90;;;;;;4993646;28;20417;-79
2023/07/19 12:39:41;;;;;;;4.88;1.92;;;21.90;99.90;;;;;;4997929;28;20839;-79
2023/07/19 12:42:08;;;;;;;4.37;2.00;;;22.10;99.90;;;;;;5007078;28;20462;-80